GJS3238 KORD-KOMA
Flight info
| Callsign | GJS3238 |
|---|---|
| Flight time | 1h 11m |
| Altitude | 40000 |
| Route | OLINN OREOS OBENE DSM LANTK2 |
| Aircraft | CRJ7/M-SDFGIRWY/S |
Departure
| Time | 2026-05-06 00:10 |
|---|---|
| Airport | Chicago O'Hare International Airport (KORD) |
Arrival
| Time | 2026-05-06 01:22 |
|---|---|
| Airport | Eppley Airfield (KOMA) |
| Time | Latitude | Longitude | Altitude | Speed | Heading |
|---|---|---|---|---|---|
| 2026-05-05 23:40 | 41.97686 | -87.90783 | 667 ft | 0 kts | 72° |
| 2026-05-05 23:59 | 41.97685 | -87.90785 | 667 ft | 2 kts | 72° |
| 2026-05-06 00:00 | 41.97676 | -87.90817 | 667 ft | 4 kts | 65° |
| 2026-05-06 00:00 | 41.97666 | -87.90845 | 667 ft | 3 kts | 66° |
| 2026-05-06 00:00 | 41.97652 | -87.90869 | 667 ft | 4 kts | 17° |
| 2026-05-06 00:00 | 41.97635 | -87.90858 | 667 ft | 4 kts | 310° |
| 2026-05-06 00:01 | 41.97621 | -87.90835 | 667 ft | 0 kts | 310° |
| 2026-05-06 00:04 | 41.97622 | -87.90839 | 667 ft | 2 kts | 296° |
| 2026-05-06 00:04 | 41.97619 | -87.90890 | 667 ft | 8 kts | 256° |
| 2026-05-06 00:04 | 41.97597 | -87.90977 | 667 ft | 11 kts | 250° |
| 2026-05-06 00:05 | 41.97518 | -87.91166 | 667 ft | 11 kts | 210° |
| 2026-05-06 00:05 | 41.97445 | -87.91130 | 667 ft | 15 kts | 141° |
| 2026-05-06 00:05 | 41.97359 | -87.91034 | 667 ft | 18 kts | 140° |
| 2026-05-06 00:06 | 41.97296 | -87.90958 | 667 ft | 19 kts | 136° |
| 2026-05-06 00:06 | 41.97202 | -87.90821 | 667 ft | 20 kts | 127° |
| 2026-05-06 00:06 | 41.97149 | -87.90641 | 667 ft | 19 kts | 97° |
| 2026-05-06 00:06 | 41.97139 | -87.90472 | 667 ft | 19 kts | 93° |
| 2026-05-06 00:07 | 41.97136 | -87.90263 | 667 ft | 10 kts | 90° |
| 2026-05-06 00:07 | 41.97136 | -87.90209 | 667 ft | 7 kts | 90° |
| 2026-05-06 00:07 | 41.97136 | -87.90184 | 667 ft | 2 kts | 93° |
| 2026-05-06 00:07 | 41.97136 | -87.90179 | 667 ft | 2 kts | 94° |
| 2026-05-06 00:08 | 41.97118 | -87.90142 | 667 ft | 8 kts | 151° |
| 2026-05-06 00:08 | 41.97050 | -87.90115 | 667 ft | 12 kts | 133° |
| 2026-05-06 00:08 | 41.97041 | -87.89996 | 667 ft | 15 kts | 89° |
| 2026-05-06 00:08 | 41.97042 | -87.89837 | 668 ft | 18 kts | 90° |
| 2026-05-06 00:09 | 41.97039 | -87.89663 | 668 ft | 17 kts | 101° |
| 2026-05-06 00:09 | 41.97012 | -87.89582 | 668 ft | 4 kts | 129° |
| 2026-05-06 00:09 | 41.96975 | -87.89558 | 669 ft | 9 kts | 177° |
| 2026-05-06 00:09 | 41.96911 | -87.89573 | 670 ft | 8 kts | 232° |
| 2026-05-06 00:10 | 41.96906 | -87.89690 | 670 ft | 39 kts | 270° |
| 2026-05-06 00:10 | 41.96903 | -87.90468 | 665 ft | 124 kts | 271° |
| 2026-05-06 00:10 | 41.96898 | -87.91845 | 995 ft | 163 kts | 272° |
| 2026-05-06 00:10 | 41.96918 | -87.93440 | 1813 ft | 180 kts | 273° |
| 2026-05-06 00:11 | 41.96965 | -87.95207 | 2623 ft | 192 kts | 273° |
| 2026-05-06 00:11 | 41.96990 | -87.97025 | 3560 ft | 200 kts | 273° |
| 2026-05-06 00:11 | 41.96860 | -87.99022 | 4155 ft | 227 kts | 264° |
| 2026-05-06 00:11 | 41.96591 | -88.01194 | 4853 ft | 243 kts | 262° |
| 2026-05-06 00:12 | 41.96287 | -88.03450 | 5768 ft | 247 kts | 264° |
| 2026-05-06 00:12 | 41.96090 | -88.05744 | 6706 ft | 247 kts | 266° |
| 2026-05-06 00:12 | 41.95954 | -88.08036 | 7696 ft | 245 kts | 266° |
| 2026-05-06 00:12 | 41.95829 | -88.10310 | 8708 ft | 244 kts | 265° |
| 2026-05-06 00:13 | 41.95714 | -88.12575 | 9744 ft | 243 kts | 264° |
| 2026-05-06 00:13 | 41.95600 | -88.14827 | 10567 ft | 248 kts | 264° |
| 2026-05-06 00:13 | 41.95481 | -88.17260 | 10869 ft | 272 kts | 265° |
| 2026-05-06 00:13 | 41.95351 | -88.19885 | 11291 ft | 291 kts | 265° |
| 2026-05-06 00:14 | 41.95199 | -88.22657 | 11803 ft | 305 kts | 265° |
| 2026-05-06 00:14 | 41.95038 | -88.25514 | 12621 ft | 308 kts | 265° |
| 2026-05-06 00:14 | 41.94857 | -88.28403 | 13454 ft | 312 kts | 265° |
| 2026-05-06 00:14 | 41.94674 | -88.31316 | 14224 ft | 315 kts | 265° |
| 2026-05-06 00:15 | 41.94486 | -88.34253 | 14979 ft | 316 kts | 265° |
| 2026-05-06 00:15 | 41.94301 | -88.37207 | 15723 ft | 319 kts | 264° |
| 2026-05-06 00:15 | 41.94108 | -88.40182 | 16456 ft | 320 kts | 264° |
| 2026-05-06 00:15 | 41.93913 | -88.43177 | 17180 ft | 323 kts | 264° |
| 2026-05-06 00:16 | 41.93717 | -88.46195 | 17883 ft | 326 kts | 263° |
| 2026-05-06 00:16 | 41.93516 | -88.49217 | 18560 ft | 327 kts | 263° |
| 2026-05-06 00:16 | 41.93317 | -88.52260 | 19179 ft | 328 kts | 263° |
| 2026-05-06 00:16 | 41.93116 | -88.55324 | 19772 ft | 330 kts | 263° |
| 2026-05-06 00:17 | 41.92909 | -88.58394 | 20345 ft | 332 kts | 263° |
| 2026-05-06 00:17 | 41.92704 | -88.61488 | 20902 ft | 334 kts | 263° |
| 2026-05-06 00:17 | 41.92496 | -88.64600 | 21445 ft | 335 kts | 263° |
| 2026-05-06 00:17 | 41.92285 | -88.67727 | 21982 ft | 337 kts | 263° |
| 2026-05-06 00:18 | 41.92075 | -88.70832 | 22494 ft | 339 kts | 262° |
| 2026-05-06 00:18 | 41.91858 | -88.74032 | 23002 ft | 341 kts | 262° |
| 2026-05-06 00:18 | 41.91645 | -88.77140 | 23474 ft | 343 kts | 262° |
| 2026-05-06 00:18 | 41.91430 | -88.80361 | 23900 ft | 344 kts | 262° |
| 2026-05-06 00:19 | 41.91242 | -88.83567 | 24325 ft | 345 kts | 264° |
| 2026-05-06 00:19 | 41.91118 | -88.86784 | 24731 ft | 346 kts | 265° |
| 2026-05-06 00:19 | 41.91022 | -88.90011 | 25134 ft | 347 kts | 264° |
| 2026-05-06 00:19 | 41.90918 | -88.93249 | 25529 ft | 347 kts | 264° |
| 2026-05-06 00:20 | 41.90812 | -88.96486 | 25924 ft | 348 kts | 264° |
| 2026-05-06 00:20 | 41.90709 | -88.99731 | 26303 ft | 348 kts | 264° |
| 2026-05-06 00:20 | 41.90603 | -89.02983 | 26667 ft | 349 kts | 264° |
| 2026-05-06 00:20 | 41.90495 | -89.06226 | 27025 ft | 349 kts | 264° |
| 2026-05-06 00:21 | 41.90387 | -89.09488 | 27356 ft | 350 kts | 264° |
| 2026-05-06 00:21 | 41.90278 | -89.12755 | 27677 ft | 350 kts | 264° |
| 2026-05-06 00:21 | 41.90167 | -89.16021 | 28002 ft | 351 kts | 264° |
| 2026-05-06 00:21 | 41.90054 | -89.19301 | 28305 ft | 352 kts | 264° |
| 2026-05-06 00:22 | 41.89895 | -89.22573 | 28607 ft | 352 kts | 263° |
| 2026-05-06 00:22 | 41.89631 | -89.25838 | 28913 ft | 351 kts | 261° |
| 2026-05-06 00:22 | 41.89297 | -89.29089 | 29197 ft | 352 kts | 260° |
| 2026-05-06 00:22 | 41.88970 | -89.32346 | 29466 ft | 353 kts | 261° |
| 2026-05-06 00:23 | 41.88654 | -89.35611 | 29718 ft | 353 kts | 261° |
| 2026-05-06 00:23 | 41.88338 | -89.38881 | 29965 ft | 354 kts | 261° |
| 2026-05-06 00:23 | 41.88020 | -89.42155 | 30169 ft | 354 kts | 261° |
| 2026-05-06 00:23 | 41.87704 | -89.45445 | 30377 ft | 355 kts | 261° |
| 2026-05-06 00:24 | 41.87384 | -89.48721 | 30581 ft | 355 kts | 261° |
| 2026-05-06 00:24 | 41.87061 | -89.52001 | 30771 ft | 355 kts | 261° |
| 2026-05-06 00:24 | 41.86737 | -89.55289 | 30957 ft | 355 kts | 261° |
| 2026-05-06 00:24 | 41.86411 | -89.58573 | 31148 ft | 355 kts | 261° |
| 2026-05-06 00:25 | 41.86081 | -89.61859 | 31328 ft | 355 kts | 261° |
| 2026-05-06 00:25 | 41.85752 | -89.65141 | 31503 ft | 356 kts | 262° |
| 2026-05-06 00:25 | 41.85425 | -89.68423 | 31838 ft | 351 kts | 262° |
| 2026-05-06 00:25 | 41.85104 | -89.71621 | 32431 ft | 341 kts | 262° |
| 2026-05-06 00:26 | 41.84789 | -89.74730 | 33047 ft | 331 kts | 262° |
| 2026-05-06 00:26 | 41.84484 | -89.77747 | 33672 ft | 321 kts | 263° |
| 2026-05-06 00:26 | 41.84211 | -89.80676 | 34215 ft | 312 kts | 263° |
| 2026-05-06 00:26 | 41.83955 | -89.83532 | 34629 ft | 306 kts | 264° |
| 2026-05-06 00:27 | 41.83702 | -89.86367 | 34820 ft | 306 kts | 264° |
| 2026-05-06 00:27 | 41.83448 | -89.89195 | 34997 ft | 306 kts | 264° |
| 2026-05-06 00:27 | 41.83197 | -89.92030 | 35166 ft | 306 kts | 264° |
| 2026-05-06 00:27 | 41.82943 | -89.94861 | 35334 ft | 306 kts | 264° |
| 2026-05-06 00:28 | 41.82692 | -89.97662 | 35494 ft | 307 kts | 264° |
| 2026-05-06 00:28 | 41.82438 | -90.00496 | 35671 ft | 307 kts | 264° |
| 2026-05-06 00:28 | 41.82181 | -90.03334 | 35838 ft | 306 kts | 264° |
| 2026-05-06 00:28 | 41.81927 | -90.06168 | 35992 ft | 306 kts | 264° |
| 2026-05-06 00:29 | 41.81669 | -90.09008 | 36139 ft | 307 kts | 264° |
| 2026-05-06 00:29 | 41.81411 | -90.11845 | 36273 ft | 307 kts | 264° |
| 2026-05-06 00:29 | 41.81151 | -90.14688 | 36408 ft | 307 kts | 264° |
| 2026-05-06 00:29 | 41.80891 | -90.17526 | 36555 ft | 307 kts | 264° |
| 2026-05-06 00:30 | 41.80634 | -90.20369 | 36695 ft | 307 kts | 264° |
| 2026-05-06 00:30 | 41.80395 | -90.23217 | 36813 ft | 307 kts | 264° |
| 2026-05-06 00:30 | 41.80155 | -90.26069 | 36925 ft | 308 kts | 264° |
| 2026-05-06 00:30 | 41.79910 | -90.28915 | 37075 ft | 308 kts | 264° |
| 2026-05-06 00:31 | 41.79649 | -90.31768 | 37199 ft | 308 kts | 264° |
| 2026-05-06 00:31 | 41.79385 | -90.34618 | 37303 ft | 309 kts | 264° |
| 2026-05-06 00:31 | 41.79118 | -90.37465 | 37436 ft | 308 kts | 264° |
| 2026-05-06 00:31 | 41.78854 | -90.40318 | 37602 ft | 308 kts | 264° |
| 2026-05-06 00:32 | 41.78587 | -90.43163 | 37708 ft | 308 kts | 264° |
| 2026-05-06 00:32 | 41.78321 | -90.46010 | 37824 ft | 308 kts | 264° |
| 2026-05-06 00:32 | 41.78051 | -90.48864 | 37944 ft | 308 kts | 264° |
| 2026-05-06 00:33 | 41.77514 | -90.54566 | 38161 ft | 308 kts | 264° |
| 2026-05-06 00:33 | 41.76972 | -90.60246 | 38387 ft | 307 kts | 264° |
| 2026-05-06 00:33 | 41.76704 | -90.63076 | 38498 ft | 306 kts | 264° |
| 2026-05-06 00:34 | 41.76434 | -90.65905 | 38578 ft | 307 kts | 264° |
| 2026-05-06 00:34 | 41.75887 | -90.71582 | 38718 ft | 307 kts | 264° |
| 2026-05-06 00:35 | 41.75339 | -90.77265 | 38864 ft | 308 kts | 264° |
| 2026-05-06 00:35 | 41.74787 | -90.82971 | 38970 ft | 310 kts | 263° |
| 2026-05-06 00:36 | 41.74231 | -90.88687 | 39103 ft | 310 kts | 263° |
| 2026-05-06 00:36 | 41.73670 | -90.94396 | 39249 ft | 311 kts | 263° |
| 2026-05-06 00:37 | 41.73106 | -91.00113 | 39356 ft | 312 kts | 263° |
| 2026-05-06 00:37 | 41.72533 | -91.05910 | 39500 ft | 313 kts | 263° |
| 2026-05-06 00:38 | 41.71960 | -91.11646 | 39671 ft | 312 kts | 263° |
| 2026-05-06 00:38 | 41.71674 | -91.14523 | 39774 ft | 312 kts | 263° |
| 2026-05-06 00:38 | 41.71386 | -91.17401 | 39846 ft | 312 kts | 263° |
| 2026-05-06 00:39 | 41.70806 | -91.23185 | 39892 ft | 315 kts | 263° |
| 2026-05-06 00:39 | 41.70213 | -91.29035 | 39906 ft | 319 kts | 263° |
| 2026-05-06 00:40 | 41.69610 | -91.34951 | 39909 ft | 323 kts | 263° |
| 2026-05-06 00:40 | 41.69006 | -91.40889 | 39911 ft | 327 kts | 263° |
| 2026-05-06 00:41 | 41.68384 | -91.46933 | 39911 ft | 331 kts | 263° |
| 2026-05-06 00:41 | 41.67754 | -91.53033 | 39929 ft | 334 kts | 263° |
| 2026-05-06 00:42 | 41.67113 | -91.59206 | 39911 ft | 335 kts | 263° |
| 2026-05-06 00:42 | 41.66468 | -91.65378 | 39908 ft | 335 kts | 262° |
| 2026-05-06 00:43 | 41.65820 | -91.71552 | 39905 ft | 335 kts | 262° |
| 2026-05-06 00:43 | 41.65171 | -91.77721 | 39902 ft | 335 kts | 262° |
| 2026-05-06 00:44 | 41.64518 | -91.83870 | 39898 ft | 335 kts | 262° |
| 2026-05-06 00:44 | 41.63863 | -91.89999 | 39888 ft | 335 kts | 262° |
| 2026-05-06 00:45 | 41.63207 | -91.96139 | 39888 ft | 334 kts | 262° |
| 2026-05-06 00:45 | 41.62548 | -92.02255 | 39892 ft | 334 kts | 262° |
| 2026-05-06 00:46 | 41.61887 | -92.08335 | 39888 ft | 334 kts | 262° |
| 2026-05-06 00:46 | 41.61222 | -92.14477 | 39899 ft | 334 kts | 262° |
| 2026-05-06 00:47 | 41.60556 | -92.20572 | 39890 ft | 334 kts | 262° |
| 2026-05-06 00:47 | 41.59881 | -92.26708 | 39891 ft | 334 kts | 262° |
| 2026-05-06 00:48 | 41.59204 | -92.32838 | 39907 ft | 334 kts | 262° |
| 2026-05-06 00:48 | 41.58523 | -92.38969 | 39906 ft | 334 kts | 262° |
| 2026-05-06 00:49 | 41.57837 | -92.45097 | 39914 ft | 334 kts | 262° |
| 2026-05-06 00:49 | 41.57151 | -92.51226 | 39928 ft | 334 kts | 262° |
| 2026-05-06 00:50 | 41.56462 | -92.57350 | 39927 ft | 334 kts | 262° |
| 2026-05-06 00:50 | 41.55768 | -92.63480 | 39930 ft | 334 kts | 261° |
| 2026-05-06 00:51 | 41.55069 | -92.69604 | 39926 ft | 334 kts | 261° |
| 2026-05-06 00:51 | 41.54487 | -92.74694 | 39929 ft | 334 kts | 261° |
| 2026-05-06 00:52 | 41.53785 | -92.80823 | 39925 ft | 333 kts | 261° |
| 2026-05-06 00:52 | 41.53082 | -92.86926 | 39914 ft | 333 kts | 261° |
| 2026-05-06 00:53 | 41.52375 | -92.93014 | 39881 ft | 331 kts | 261° |
| 2026-05-06 00:53 | 41.51669 | -92.99075 | 39908 ft | 330 kts | 261° |
| 2026-05-06 00:54 | 41.50963 | -93.05117 | 39910 ft | 329 kts | 261° |
| 2026-05-06 00:54 | 41.50254 | -93.11155 | 39852 ft | 328 kts | 261° |
| 2026-05-06 00:55 | 41.49545 | -93.17151 | 39855 ft | 326 kts | 261° |
| 2026-05-06 00:55 | 41.48839 | -93.23086 | 39844 ft | 319 kts | 261° |
| 2026-05-06 00:55 | 41.48497 | -93.25975 | 39674 ft | 313 kts | 261° |
| 2026-05-06 00:56 | 41.48157 | -93.28831 | 39341 ft | 310 kts | 260° |
| 2026-05-06 00:56 | 41.47818 | -93.31658 | 38994 ft | 307 kts | 260° |
| 2026-05-06 00:56 | 41.47483 | -93.34453 | 38653 ft | 304 kts | 260° |
| 2026-05-06 00:56 | 41.47152 | -93.37217 | 38201 ft | 301 kts | 260° |
| 2026-05-06 00:57 | 41.46823 | -93.39965 | 37756 ft | 297 kts | 260° |
| 2026-05-06 00:57 | 41.46498 | -93.42663 | 37359 ft | 293 kts | 260° |
| 2026-05-06 00:57 | 41.46174 | -93.45331 | 36977 ft | 292 kts | 260° |
| 2026-05-06 00:57 | 41.45850 | -93.48016 | 36599 ft | 293 kts | 260° |
| 2026-05-06 00:58 | 41.45525 | -93.50694 | 36239 ft | 294 kts | 260° |
| 2026-05-06 00:58 | 41.45199 | -93.53369 | 35911 ft | 293 kts | 260° |
| 2026-05-06 00:58 | 41.44878 | -93.56039 | 35924 ft | 289 kts | 260° |
| 2026-05-06 00:58 | 41.44559 | -93.58681 | 35839 ft | 290 kts | 260° |
| 2026-05-06 00:59 | 41.44237 | -93.61330 | 35432 ft | 289 kts | 259° |
| 2026-05-06 00:59 | 41.44016 | -93.64018 | 35055 ft | 295 kts | 264° |
| 2026-05-06 00:59 | 41.43998 | -93.66782 | 34686 ft | 301 kts | 266° |
| 2026-05-06 00:59 | 41.44057 | -93.69602 | 34320 ft | 307 kts | 268° |
| 2026-05-06 01:00 | 41.44193 | -93.72427 | 33972 ft | 312 kts | 269° |
| 2026-05-06 01:00 | 41.44366 | -93.75324 | 33554 ft | 315 kts | 269° |
| 2026-05-06 01:00 | 41.44534 | -93.78207 | 33141 ft | 317 kts | 269° |
| 2026-05-06 01:00 | 41.44698 | -93.81155 | 32736 ft | 320 kts | 269° |
| 2026-05-06 01:01 | 41.44860 | -93.84126 | 32330 ft | 324 kts | 269° |
| 2026-05-06 01:01 | 41.45018 | -93.87137 | 31929 ft | 327 kts | 269° |
| 2026-05-06 01:01 | 41.45185 | -93.90176 | 31535 ft | 330 kts | 269° |
| 2026-05-06 01:01 | 41.45347 | -93.93232 | 31142 ft | 336 kts | 269° |
| 2026-05-06 01:02 | 41.45511 | -93.96372 | 30746 ft | 344 kts | 269° |
| 2026-05-06 01:02 | 41.45682 | -93.99590 | 30346 ft | 351 kts | 269° |
| 2026-05-06 01:02 | 41.45854 | -94.02871 | 29914 ft | 359 kts | 269° |
| 2026-05-06 01:02 | 41.46033 | -94.06225 | 29417 ft | 366 kts | 269° |
| 2026-05-06 01:03 | 41.46211 | -94.09626 | 28929 ft | 370 kts | 269° |
| 2026-05-06 01:03 | 41.46396 | -94.13064 | 28454 ft | 372 kts | 270° |
| 2026-05-06 01:03 | 41.46577 | -94.16489 | 27973 ft | 369 kts | 270° |
| 2026-05-06 01:03 | 41.46751 | -94.19892 | 27511 ft | 367 kts | 269° |
| 2026-05-06 01:04 | 41.46926 | -94.23281 | 27039 ft | 366 kts | 270° |
| 2026-05-06 01:04 | 41.47099 | -94.26670 | 26576 ft | 366 kts | 270° |
| 2026-05-06 01:04 | 41.47269 | -94.30054 | 26124 ft | 366 kts | 270° |
| 2026-05-06 01:04 | 41.47440 | -94.33438 | 25675 ft | 365 kts | 270° |
| 2026-05-06 01:05 | 41.47612 | -94.36814 | 25245 ft | 366 kts | 270° |
| 2026-05-06 01:05 | 41.47782 | -94.40189 | 24815 ft | 363 kts | 270° |
| 2026-05-06 01:05 | 41.47947 | -94.43523 | 24413 ft | 357 kts | 270° |
| 2026-05-06 01:05 | 41.48111 | -94.46761 | 23998 ft | 352 kts | 270° |
| 2026-05-06 01:06 | 41.48271 | -94.49999 | 23580 ft | 348 kts | 270° |
| 2026-05-06 01:06 | 41.48428 | -94.53189 | 23097 ft | 345 kts | 270° |
| 2026-05-06 01:06 | 41.48584 | -94.56424 | 22597 ft | 342 kts | 270° |
| 2026-05-06 01:06 | 41.48739 | -94.59534 | 22144 ft | 340 kts | 270° |
| 2026-05-06 01:07 | 41.48889 | -94.62674 | 21670 ft | 338 kts | 270° |
| 2026-05-06 01:07 | 41.49036 | -94.65784 | 21218 ft | 337 kts | 270° |
| 2026-05-06 01:07 | 41.49183 | -94.68896 | 20784 ft | 335 kts | 270° |
| 2026-05-06 01:07 | 41.49332 | -94.71997 | 20363 ft | 335 kts | 270° |
| 2026-05-06 01:08 | 41.49478 | -94.75091 | 19944 ft | 334 kts | 271° |
| 2026-05-06 01:08 | 41.49618 | -94.78096 | 19541 ft | 334 kts | 271° |
| 2026-05-06 01:08 | 41.49762 | -94.81197 | 19130 ft | 336 kts | 271° |
| 2026-05-06 01:08 | 41.49905 | -94.84294 | 18737 ft | 338 kts | 271° |
| 2026-05-06 01:09 | 41.50047 | -94.87430 | 18347 ft | 340 kts | 271° |
| 2026-05-06 01:09 | 41.50184 | -94.90356 | 17930 ft | 342 kts | 271° |
| 2026-05-06 01:09 | 41.50328 | -94.93531 | 17485 ft | 343 kts | 272° |
| 2026-05-06 01:09 | 41.50472 | -94.96705 | 17035 ft | 344 kts | 272° |
| 2026-05-06 01:10 | 41.50616 | -94.99848 | 16596 ft | 340 kts | 272° |
| 2026-05-06 01:10 | 41.50749 | -95.02870 | 16171 ft | 331 kts | 272° |
| 2026-05-06 01:10 | 41.50884 | -95.05902 | 15738 ft | 324 kts | 272° |
| 2026-05-06 01:10 | 41.51017 | -95.08881 | 15316 ft | 319 kts | 273° |
| 2026-05-06 01:11 | 41.51037 | -95.11792 | 14886 ft | 314 kts | 262° |
| 2026-05-06 01:11 | 41.50322 | -95.14534 | 14479 ft | 315 kts | 249° |
| 2026-05-06 01:11 | 41.49370 | -95.17165 | 14073 ft | 315 kts | 244° |
| 2026-05-06 01:11 | 41.48230 | -95.19674 | 13656 ft | 319 kts | 240° |
| 2026-05-06 01:12 | 41.46986 | -95.22139 | 13198 ft | 321 kts | 239° |
| 2026-05-06 01:12 | 41.45764 | -95.24520 | 12761 ft | 323 kts | 239° |
| 2026-05-06 01:12 | 41.44505 | -95.26988 | 12318 ft | 323 kts | 240° |
| 2026-05-06 01:12 | 41.43272 | -95.29493 | 11867 ft | 324 kts | 240° |
| 2026-05-06 01:13 | 41.42039 | -95.32009 | 11436 ft | 324 kts | 240° |
| 2026-05-06 01:13 | 41.40995 | -95.34139 | 11074 ft | 324 kts | 240° |
| 2026-05-06 01:13 | 41.39765 | -95.36656 | 10650 ft | 324 kts | 240° |
| 2026-05-06 01:13 | 41.38535 | -95.39166 | 10223 ft | 323 kts | 240° |
| 2026-05-06 01:14 | 41.36175 | -95.43975 | 9784 ft | 298 kts | 240° |
| 2026-05-06 01:14 | 41.35184 | -95.45989 | 9697 ft | 284 kts | 240° |
| 2026-05-06 01:14 | 41.34142 | -95.48107 | 9609 ft | 271 kts | 240° |
| 2026-05-06 01:15 | 41.33123 | -95.50177 | 9391 ft | 264 kts | 240° |
| 2026-05-06 01:15 | 41.32122 | -95.52223 | 8954 ft | 265 kts | 241° |
| 2026-05-06 01:15 | 41.31112 | -95.54270 | 8530 ft | 264 kts | 240° |
| 2026-05-06 01:15 | 41.30110 | -95.56304 | 8129 ft | 262 kts | 240° |
| 2026-05-06 01:16 | 41.29111 | -95.58328 | 7740 ft | 260 kts | 241° |
| 2026-05-06 01:16 | 41.28127 | -95.60334 | 7351 ft | 258 kts | 241° |
| 2026-05-06 01:16 | 41.27149 | -95.62331 | 6965 ft | 257 kts | 241° |
| 2026-05-06 01:16 | 41.26174 | -95.64302 | 6588 ft | 255 kts | 241° |
| 2026-05-06 01:17 | 41.25192 | -95.66291 | 6208 ft | 253 kts | 241° |
| 2026-05-06 01:17 | 41.24246 | -95.68211 | 5812 ft | 251 kts | 241° |
| 2026-05-06 01:17 | 41.23294 | -95.70134 | 5434 ft | 247 kts | 241° |
| 2026-05-06 01:17 | 41.22355 | -95.72029 | 5038 ft | 244 kts | 241° |
| 2026-05-06 01:18 | 41.21430 | -95.73893 | 4656 ft | 238 kts | 241° |
| 2026-05-06 01:18 | 41.20563 | -95.75634 | 4331 ft | 217 kts | 241° |
| 2026-05-06 01:18 | 41.19830 | -95.77303 | 3939 ft | 197 kts | 254° |
| 2026-05-06 01:18 | 41.19928 | -95.78902 | 3425 ft | 166 kts | 303° |
| 2026-05-06 01:19 | 41.20638 | -95.79881 | 3208 ft | 136 kts | 320° |
| 2026-05-06 01:19 | 41.21322 | -95.80694 | 3057 ft | 127 kts | 321° |
| 2026-05-06 01:19 | 41.21992 | -95.81444 | 2981 ft | 128 kts | 323° |
| 2026-05-06 01:19 | 41.22680 | -95.82203 | 2903 ft | 127 kts | 322° |
| 2026-05-06 01:20 | 41.23336 | -95.82935 | 2762 ft | 119 kts | 324° |
| 2026-05-06 01:20 | 41.23987 | -95.83591 | 2465 ft | 120 kts | 327° |
| 2026-05-06 01:20 | 41.24686 | -95.84242 | 2341 ft | 120 kts | 327° |
| 2026-05-06 01:20 | 41.25356 | -95.84887 | 2147 ft | 117 kts | 327° |
| 2026-05-06 01:21 | 41.26033 | -95.85528 | 1899 ft | 124 kts | 328° |
| 2026-05-06 01:21 | 41.26741 | -95.86188 | 1702 ft | 122 kts | 325° |
| 2026-05-06 01:21 | 41.27419 | -95.86854 | 1448 ft | 125 kts | 326° |
| 2026-05-06 01:21 | 41.28152 | -95.87547 | 1328 ft | 130 kts | 326° |
| 2026-05-06 01:22 | 41.28856 | -95.88216 | 1142 ft | 121 kts | 326° |
| 2026-05-06 01:22 | 41.29531 | -95.88850 | 996 ft | 114 kts | 325° |
| 2026-05-06 01:22 | 41.30031 | -95.89323 | 988 ft | 45 kts | 325° |
| 2026-05-06 01:22 | 41.30204 | -95.89495 | 986 ft | 29 kts | 319° |
| 2026-05-06 01:23 | 41.30263 | -95.89591 | 986 ft | 5 kts | 247° |
| 2026-05-06 01:23 | 41.30226 | -95.89607 | 987 ft | 8 kts | 179° |
| 2026-05-06 01:23 | 41.30152 | -95.89606 | 982 ft | 13 kts | 180° |
| 2026-05-06 01:23 | 41.30054 | -95.89606 | 987 ft | 15 kts | 180° |
| 2026-05-06 01:24 | 41.29940 | -95.89607 | 987 ft | 17 kts | 180° |
| 2026-05-06 01:24 | 41.29820 | -95.89607 | 987 ft | 18 kts | 180° |
| 2026-05-06 01:24 | 41.29694 | -95.89609 | 983 ft | 18 kts | 180° |
| 2026-05-06 01:24 | 41.29594 | -95.89612 | 983 ft | 11 kts | 194° |
| 2026-05-06 01:25 | 41.29564 | -95.89678 | 987 ft | 5 kts | 291° |
| 2026-05-06 01:25 | 41.29604 | -95.89694 | 983 ft | 9 kts | 351° |
| 2026-05-06 01:25 | 41.29639 | -95.89760 | 985 ft | 10 kts | 273° |
| 2026-05-06 01:25 | 41.29643 | -95.89865 | 983 ft | 12 kts | 274° |
| 2026-05-06 01:26 | 41.29663 | -95.89942 | 986 ft | 9 kts | 321° |
| 2026-05-06 01:26 | 41.29708 | -95.89936 | 983 ft | 7 kts | 54° |
| 2026-05-06 01:26 | 41.29728 | -95.89896 | 985 ft | 2 kts | 58° |
| 2026-05-06 01:26 | 41.29730 | -95.89892 | 986 ft | 0 kts | 58° |